Mona, UT (84645)

19:35 MDT le 21 octobre 2014 (GMT -0600)
Ironrod | Change Station
CLOSE
Current Station
Stations météorologiques personnelles
Location: Elk Ridge, UT
Altitude: 5420 ft
Stations météo à proximité

Alt. 5420 ft 40.01 °N, 111.68 °W | Updated 4 minutes ago

Nuageux
Nuageux
50.2 ° F
Paraît 50.2 ° F
N
4.0
Vent Variable Vent de Nord
Gusts 5.0 mph

Aujourd'hui
Haut(e) -- | Bas -- ° F
--% Risque de précip.
Hier
Haut(e) -- | Bas -- ° F
Precip. -- pouce
7:44 AM 6:39 PM
Lune descendante, 3% visible
Pression 30.01 pouce
Visibilité 10.0 Miles terrestres
Nuages Nuageux 8000 ft
Point de rosée 29 ° F
Humidité 45%
Précipitations 0.00 pouce
Profondeur de la couche neigeuse 0 in
UV 0 sur 12
Pollen 2.10 sur 12
Qualité de l'air Non disponible.
Flu Activity Sporadic
METAR KPVU 220047Z 31011G15KT 10SM BKN080 16/00 A3001

More Conditions Fewer Conditions

Pression 30.01 pouce
Visibilité 10.0 Miles terrestres
Nuages Nuageux 8000 ft
Point de rosée 29 ° F
Humidité 45%
Précipitations 0.00 pouce
Profondeur de la couche neigeuse 0 in
UV 0 sur 12
Pollen 2.10 sur 12
Qualité de l'air Non disponible.
Flu Activity Sporadic
METAR KPVU 220047Z 31011G15KT 10SM BKN080 16/00 A3001

More Conditions Fewer Conditions

10-Day Weather Forecast

Almanac

Astronomie

Oct. 21, 2014 Lever Coucher
Temps réel 07:44 MDT 18:39 MDT
Crépuscule civil 07:16 MDT 19:06 MDT
Crépuscule nautique 06:45 MDT 19:38 MDT
Crépuscule astronomique 06:13 MDT 20:09 MDT
Lune 05:32 MDT (10/21) 17:35 MDT (10/21)
Durée de lumière visible 11h 50m
Longueur du jour
10h 55m
Tomorrow will be 2m 28s shorter.
Lune descendante, 3% of the Moon is Illuminated
Aujourd'hui
Lune descendante
Oct 23
Nouveau
Oct 30
Premier quartier
Nov 6
Pleine lune
Nov 14
Dernier quartier

Extrêmes aujourd'hui

State Highs State Lows

Community

WunderPhotos

Upload Photos

1,763,844 Photos téléchargées !

Nearby

Épaisseur de neige

Station Depth Altitude
Payson R.S. 0 in 8050 ft
Clear Creek #1 0 in 9200 ft
Clear Creek #2 0 in 8300 ft
Cascade Mountain 0 in 7768 ft
Seeley Creek 0 in 10000 ft

Activité sismique

Ville Distance Mag. Time & Date
No recent earthquake activity has been reported nearby.
Minimum magnitude displayed is 2.5.

Températures des eaux côtières

Lieu Température
Aucun rapport de station

Stations météo à proximité